PWSweather.com
Personal Weather Stations
Station Observations
KWABLAIN13
Ptl Weather, Blaine, WA

Ptl WeatherBlaine, WA

Lat: 48.997393, Lon: -122.748614

Elevation: 57

Station Type: Davis Advantage Pro 2

http://www.ptlnet.net

High Low Average
Temperature 77.1°F25.1°C 55.3°F12.9°C 66.5°F19.2°C
Dew Point 64.4°F18.0°C 53.6°F12.0°C 59.8°F15.4°C
Winds 10.0 mph 16.1 kmh Calm Calm 3.0 mph S4.8 kmh S
Wind Gusts 12.0 mph19.3 kmh -- 5.0 mph8.0 kmh
Humidity 97% 62% 80%
Pressure 30.22 in1023.4 mb 30.04 in1017.3 mb -
Precipitation 0.00 in0.0 mm - -
Hour Temp Dew Point Humidity Winds Wind Gusts Pressure Precip Precip Rate Daily Precip Total
12:00 AM 61.8°F16.6°C 57.6°F14.2°C 86% Calm Calm -- 30.23 in1023.7 mb 0.00 in0.0 mm 0.00 in0.0 mm 0.00 in0.0 mm
12:14 AM 61.8°F16.6°C 57.6°F14.2°C 86% Calm Calm -- 30.23 in1023.7 mb 0.00 in0.0 mm 0.00 in0.0 mm 0.00 in0.0 mm
12:19 AM 61.7°F16.5°C 57.5°F14.2°C 86% Calm Calm -- 30.23 in1023.7 mb 0.00 in0.0 mm 0.00 in0.0 mm 0.00 in0.0 mm
12:35 AM 61.7°F16.5°C 57.5°F14.2°C 86% Calm Calm -- 30.23 in1023.7 mb 0.00 in0.0 mm 0.00 in0.0 mm 0.00 in0.0 mm
12:39 AM 61.8°F16.6°C 57.6°F14.2°C 86% Calm Calm -- 30.23 in1023.7 mb 0.00 in0.0 mm 0.00 in0.0 mm 0.00 in0.0 mm
12:55 AM 61.7°F16.5°C 57.8°F14.3°C 87% Calm Calm -- 30.22 in1023.4 mb 0.00 in0.0 mm 0.00 in0.0 mm 0.00 in0.0 mm
12:59 AM 61.7°F16.5°C 57.8°F14.3°C 87% Calm Calm -- 30.22 in1023.4 mb 0.00 in0.0 mm 0.00 in0.0 mm 0.00 in0.0 mm
01:15 AM 61.6°F16.4°C 57.7°F14.3°C 87% Calm Calm -- 30.22 in1023.4 mb 0.00 in0.0 mm 0.00 in0.0 mm 0.00 in0.0 mm
01:19 AM 61.7°F16.5°C 57.8°F14.3°C 87% Calm Calm -- 30.22 in1023.4 mb 0.00 in0.0 mm 0.00 in0.0 mm 0.00 in0.0 mm
01:35 AM 61.7°F16.5°C 58.1°F14.5°C 88% Calm Calm -- 30.22 in1023.4 mb 0.00 in0.0 mm 0.00 in0.0 mm 0.00 in0.0 mm
01:40 AM 61.7°F16.5°C 58.1°F14.5°C 88% Calm Calm -- 30.22 in1023.4 mb 0.00 in0.0 mm 0.00 in0.0 mm 0.00 in0.0 mm
01:44 AM 61.7°F16.5°C 58.1°F14.5°C 88% Calm Calm -- 30.22 in1023.4 mb 0.00 in0.0 mm 0.00 in0.0 mm 0.00 in0.0 mm
01:50 AM 61.6°F16.4°C 58.0°F14.4°C 88% Calm Calm -- 30.22 in1023.4 mb 0.00 in0.0 mm 0.00 in0.0 mm 0.00 in0.0 mm
02:05 AM 61.5°F16.4°C 57.9°F14.4°C 88% Calm Calm 2.0 mph3.2 kmh 30.22 in1023.4 mb 0.00 in0.0 mm 0.00 in0.0 mm 0.00 in0.0 mm
02:10 AM 61.4°F16.3°C 57.8°F14.3°C 88% Calm Calm 2.0 mph3.2 kmh 30.21 in1023.0 mb 0.00 in0.0 mm 0.00 in0.0 mm 0.00 in0.0 mm
02:24 AM 61.2°F16.2°C 57.9°F14.4°C 89% 3.0 mph N4.8 kmh N 3.0 mph4.8 kmh 30.21 in1023.0 mb 0.00 in0.0 mm 0.00 in0.0 mm 0.00 in0.0 mm
02:30 AM 61.1°F16.2°C 57.8°F14.3°C 89% Calm Calm 3.0 mph4.8 kmh 30.21 in1023.0 mb 0.00 in0.0 mm 0.00 in0.0 mm 0.00 in0.0 mm
02:44 AM 60.7°F15.9°C 57.8°F14.3°C 90% Calm Calm -- 30.21 in1023.0 mb 0.00 in0.0 mm 0.00 in0.0 mm 0.00 in0.0 mm
02:50 AM 60.5°F15.8°C 57.6°F14.2°C 90% Calm Calm -- 30.21 in1023.0 mb 0.00 in0.0 mm 0.00 in0.0 mm 0.00 in0.0 mm
03:04 AM 60.1°F15.6°C 57.5°F14.2°C 91% Calm Calm -- 30.21 in1023.0 mb 0.00 in0.0 mm 0.00 in0.0 mm 0.00 in0.0 mm
03:10 AM 59.9°F15.5°C 57.3°F14.1°C 91% Calm Calm -- 30.21 in1023.0 mb 0.00 in0.0 mm 0.00 in0.0 mm 0.00 in0.0 mm
03:25 AM 59.4°F15.2°C 56.8°F13.8°C 91% Calm Calm -- 30.21 in1023.0 mb 0.00 in0.0 mm 0.00 in0.0 mm 0.00 in0.0 mm
03:30 AM 59.3°F15.2°C 56.7°F13.7°C 91% Calm Calm -- 30.21 in1023.0 mb 0.00 in0.0 mm 0.00 in0.0 mm 0.00 in0.0 mm
03:45 AM 58.9°F14.9°C 56.6°F13.7°C 92% Calm Calm 1.0 mph1.6 kmh 30.21 in1023.0 mb 0.00 in0.0 mm 0.00 in0.0 mm 0.00 in0.0 mm
03:50 AM 58.8°F14.9°C 56.5°F13.6°C 92% Calm Calm -- 30.21 in1023.0 mb 0.00 in0.0 mm 0.00 in0.0 mm 0.00 in0.0 mm
04:05 AM 58.6°F14.8°C 56.6°F13.7°C 93% Calm Calm 2.0 mph3.2 kmh 30.21 in1023.0 mb 0.00 in0.0 mm 0.00 in0.0 mm 0.00 in0.0 mm
04:10 AM 58.5°F14.7°C 56.5°F13.6°C 93% 1.0 mph NE1.6 kmh NE 1.0 mph1.6 kmh 30.21 in1023.0 mb 0.00 in0.0 mm 0.00 in0.0 mm 0.00 in0.0 mm
04:25 AM 58.2°F14.6°C 55.9°F13.3°C 92% Calm Calm -- 30.21 in1023.0 mb 0.00 in0.0 mm 0.00 in0.0 mm 0.00 in0.0 mm
04:29 AM 58.0°F14.4°C 55.7°F13.2°C 92% Calm Calm -- 30.21 in1023.0 mb 0.00 in0.0 mm 0.00 in0.0 mm 0.00 in0.0 mm
04:45 AM 57.4°F14.1°C 55.1°F12.8°C 92% Calm Calm -- 30.21 in1023.0 mb 0.00 in0.0 mm 0.00 in0.0 mm 0.00 in0.0 mm
04:50 AM 57.2°F14.0°C 54.9°F12.7°C 92% Calm Calm -- 30.21 in1023.0 mb 0.00 in0.0 mm 0.00 in0.0 mm 0.00 in0.0 mm
05:04 AM 56.7°F13.7°C 54.7°F12.6°C 93% Calm Calm -- 30.21 in1023.0 mb 0.00 in0.0 mm 0.00 in0.0 mm 0.00 in0.0 mm
05:10 AM 56.6°F13.7°C 54.6°F12.6°C 93% Calm Calm -- 30.21 in1023.0 mb 0.00 in0.0 mm 0.00 in0.0 mm 0.00 in0.0 mm
05:25 AM 56.2°F13.4°C 54.2°F12.3°C 93% Calm Calm -- 30.22 in1023.4 mb 0.00 in0.0 mm 0.00 in0.0 mm 0.00 in0.0 mm
05:30 AM 56.0°F13.3°C 54.0°F12.2°C 93% Calm Calm -- 30.22 in1023.4 mb 0.00 in0.0 mm 0.00 in0.0 mm 0.00 in0.0 mm
05:45 AM 55.8°F13.2°C 54.1°F12.3°C 94% Calm Calm -- 30.21 in1023.0 mb 0.00 in0.0 mm 0.00 in0.0 mm 0.00 in0.0 mm
05:50 AM 55.7°F13.2°C 54.0°F12.2°C 94% Calm Calm -- 30.22 in1023.4 mb 0.00 in0.0 mm 0.00 in0.0 mm 0.00 in0.0 mm
06:05 AM 55.5°F13.1°C 53.8°F12.1°C 94% Calm Calm -- 30.21 in1023.0 mb 0.00 in0.0 mm 0.00 in0.0 mm 0.00 in0.0 mm
06:10 AM 55.5°F13.1°C 53.8°F12.1°C 94% Calm Calm -- 30.21 in1023.0 mb 0.00 in0.0 mm 0.00 in0.0 mm 0.00 in0.0 mm
06:25 AM 55.3°F12.9°C 53.6°F12.0°C 94% Calm Calm -- 30.21 in1023.0 mb 0.00 in0.0 mm 0.00 in0.0 mm 0.00 in0.0 mm
06:30 AM 55.3°F12.9°C 53.9°F12.2°C 95% Calm Calm -- 30.21 in1023.0 mb 0.00 in0.0 mm 0.00 in0.0 mm 0.00 in0.0 mm
06:44 AM 56.0°F13.3°C 54.9°F12.7°C 96% Calm Calm -- 30.22 in1023.4 mb 0.00 in0.0 mm 0.00 in0.0 mm 0.00 in0.0 mm
06:50 AM 56.3°F13.5°C 55.2°F12.9°C 96% Calm Calm -- 30.21 in1023.0 mb 0.00 in0.0 mm 0.00 in0.0 mm 0.00 in0.0 mm
07:05 AM 57.5°F14.2°C 56.7°F13.7°C 97% Calm Calm -- 30.22 in1023.4 mb 0.00 in0.0 mm 0.00 in0.0 mm 0.00 in0.0 mm
07:10 AM 57.7°F14.3°C 56.6°F13.7°C 96% Calm Calm -- 30.22 in1023.4 mb 0.00 in0.0 mm 0.00 in0.0 mm 0.00 in0.0 mm
07:25 AM 58.7°F14.8°C 57.6°F14.2°C 96% Calm Calm -- 30.22 in1023.4 mb 0.00 in0.0 mm 0.00 in0.0 mm 0.00 in0.0 mm
07:29 AM 58.9°F14.9°C 57.8°F14.3°C 96% Calm Calm -- 30.21 in1023.0 mb 0.00 in0.0 mm 0.00 in0.0 mm 0.00 in0.0 mm
07:45 AM 59.8°F15.4°C 58.1°F14.5°C 94% Calm Calm -- 30.22 in1023.4 mb 0.00 in0.0 mm 0.00 in0.0 mm 0.00 in0.0 mm
07:50 AM 60.1°F15.6°C 58.4°F14.7°C 94% Calm Calm -- 30.21 in1023.0 mb 0.00 in0.0 mm 0.00 in0.0 mm 0.00 in0.0 mm
08:05 AM 60.8°F16.0°C 58.5°F14.7°C 92% Calm Calm -- 30.21 in1023.0 mb 0.00 in0.0 mm 0.00 in0.0 mm 0.00 in0.0 mm
08:09 AM 60.9°F16.1°C 58.0°F14.4°C 90% Calm Calm -- 30.21 in1023.0 mb 0.00 in0.0 mm 0.00 in0.0 mm 0.00 in0.0 mm
08:25 AM 61.7°F16.5°C 58.4°F14.7°C 89% Calm Calm -- 30.21 in1023.0 mb 0.00 in0.0 mm 0.00 in0.0 mm 0.00 in0.0 mm
08:30 AM 62.0°F16.7°C 58.4°F14.7°C 88% Calm Calm -- 30.21 in1023.0 mb 0.00 in0.0 mm 0.00 in0.0 mm 0.00 in0.0 mm
08:45 AM 63.4°F17.4°C 59.5°F15.3°C 87% 4.0 mph W6.4 kmh W 5.0 mph8.0 kmh 30.21 in1023.0 mb 0.00 in0.0 mm 0.00 in0.0 mm 0.00 in0.0 mm
08:50 AM 63.6°F17.6°C 59.7°F15.4°C 87% 3.0 mph W4.8 kmh W 5.0 mph8.0 kmh 30.21 in1023.0 mb 0.00 in0.0 mm 0.00 in0.0 mm 0.00 in0.0 mm
09:05 AM 64.3°F17.9°C 59.7°F15.4°C 85% 5.0 mph SW8.0 kmh SW 6.0 mph9.7 kmh 30.21 in1023.0 mb 0.00 in0.0 mm 0.00 in0.0 mm 0.00 in0.0 mm
09:09 AM 64.4°F18.0°C 59.8°F15.4°C 85% 5.0 mph W8.0 kmh W 6.0 mph9.7 kmh 30.21 in1023.0 mb 0.00 in0.0 mm 0.00 in0.0 mm 0.00 in0.0 mm
09:25 AM 65.0°F18.3°C 60.4°F15.8°C 85% 2.0 mph WNW3.2 kmh WNW 9.0 mph14.5 kmh 30.21 in1023.0 mb 0.00 in0.0 mm 0.00 in0.0 mm 0.00 in0.0 mm
09:30 AM 65.4°F18.6°C 60.5°F15.8°C 84% 6.0 mph W9.7 kmh W 9.0 mph14.5 kmh 30.20 in1022.7 mb 0.00 in0.0 mm 0.00 in0.0 mm 0.00 in0.0 mm
09:45 AM 66.6°F19.2°C 61.3°F16.3°C 83% 7.0 mph W11.3 kmh W 9.0 mph14.5 kmh 30.20 in1022.7 mb 0.00 in0.0 mm 0.00 in0.0 mm 0.00 in0.0 mm
09:50 AM 66.8°F19.3°C 60.8°F16.0°C 81% 5.0 mph WSW8.0 kmh WSW 9.0 mph14.5 kmh 30.20 in1022.7 mb 0.00 in0.0 mm 0.00 in0.0 mm 0.00 in0.0 mm
10:05 AM 67.8°F19.9°C 61.1°F16.2°C 79% 7.0 mph WNW11.3 kmh WNW 11.0 mph17.7 kmh 30.20 in1022.7 mb 0.00 in0.0 mm 0.00 in0.0 mm 0.00 in0.0 mm
10:10 AM 68.1°F20.1°C 61.7°F16.5°C 80% 7.0 mph SW11.3 kmh SW 11.0 mph17.7 kmh 30.20 in1022.7 mb 0.00 in0.0 mm 0.00 in0.0 mm 0.00 in0.0 mm
10:25 AM 68.6°F20.3°C 61.5°F16.4°C 78% 9.0 mph SW14.5 kmh SW 9.0 mph14.5 kmh 30.20 in1022.7 mb 0.00 in0.0 mm 0.00 in0.0 mm 0.00 in0.0 mm
10:29 AM 68.6°F20.3°C 61.1°F16.2°C 77% 9.0 mph W14.5 kmh W 11.0 mph17.7 kmh 30.20 in1022.7 mb 0.00 in0.0 mm 0.00 in0.0 mm 0.00 in0.0 mm
10:40 AM 69.0°F20.6°C 61.9°F16.6°C 78% 4.0 mph WSW6.4 kmh WSW 11.0 mph17.7 kmh 30.20 in1022.7 mb 0.00 in0.0 mm 0.00 in0.0 mm 0.00 in0.0 mm
10:55 AM 69.5°F20.8°C 61.6°F16.4°C 76% 4.0 mph SW6.4 kmh SW 11.0 mph17.7 kmh 30.20 in1022.7 mb 0.00 in0.0 mm 0.00 in0.0 mm 0.00 in0.0 mm
10:59 AM 69.6°F20.9°C 61.7°F16.5°C 76% 4.0 mph WNW6.4 kmh WNW 12.0 mph19.3 kmh 30.20 in1022.7 mb 0.00 in0.0 mm 0.00 in0.0 mm 0.00 in0.0 mm
11:15 AM 70.2°F21.2°C 62.7°F17.1°C 77% 3.0 mph WSW4.8 kmh WSW 9.0 mph14.5 kmh 30.19 in1022.4 mb 0.00 in0.0 mm 0.00 in0.0 mm 0.00 in0.0 mm
11:19 AM 70.3°F21.3°C 62.0°F16.7°C 75% 6.0 mph WSW9.7 kmh WSW 10.0 mph16.1 kmh 30.19 in1022.4 mb 0.00 in0.0 mm 0.00 in0.0 mm 0.00 in0.0 mm
11:35 AM 70.4°F21.3°C 62.5°F16.9°C 76% 10.0 mph W16.1 kmh W 11.0 mph17.7 kmh 30.19 in1022.4 mb 0.00 in0.0 mm 0.00 in0.0 mm 0.00 in0.0 mm
11:40 AM 70.3°F21.3°C 62.4°F16.9°C 76% 3.0 mph W4.8 kmh W 11.0 mph17.7 kmh 30.19 in1022.4 mb 0.00 in0.0 mm 0.00 in0.0 mm 0.00 in0.0 mm
11:55 AM 70.7°F21.5°C 62.0°F16.7°C 74% 8.0 mph WSW12.9 kmh WSW 11.0 mph17.7 kmh 30.19 in1022.4 mb 0.00 in0.0 mm 0.00 in0.0 mm 0.00 in0.0 mm
11:59 AM 70.8°F21.6°C 62.1°F16.7°C 74% 5.0 mph W8.0 kmh W 11.0 mph17.7 kmh 30.18 in1022.0 mb 0.00 in0.0 mm 0.00 in0.0 mm 0.00 in0.0 mm
12:15 PM 71.0°F21.7°C 62.3°F16.8°C 74% 7.0 mph W11.3 kmh W 10.0 mph16.1 kmh 30.18 in1022.0 mb 0.00 in0.0 mm 0.00 in0.0 mm 0.00 in0.0 mm
12:20 PM 71.3°F21.8°C 63.0°F17.2°C 75% 7.0 mph SW11.3 kmh SW 10.0 mph16.1 kmh 30.18 in1022.0 mb 0.00 in0.0 mm 0.00 in0.0 mm 0.00 in0.0 mm
12:34 PM 72.4°F22.4°C 63.3°F17.4°C 73% 2.0 mph W3.2 kmh W 10.0 mph16.1 kmh 30.17 in1021.7 mb 0.00 in0.0 mm 0.00 in0.0 mm 0.00 in0.0 mm
12:39 PM 72.4°F22.4°C 63.3°F17.4°C 73% 7.0 mph WSW11.3 kmh WSW 10.0 mph16.1 kmh 30.17 in1021.7 mb 0.00 in0.0 mm 0.00 in0.0 mm 0.00 in0.0 mm
12:55 PM 72.5°F22.5°C 63.0°F17.2°C 72% 9.0 mph WSW14.5 kmh WSW 9.0 mph14.5 kmh 30.17 in1021.7 mb 0.00 in0.0 mm 0.00 in0.0 mm 0.00 in0.0 mm
01:00 PM 72.6°F22.6°C 62.7°F17.1°C 71% 5.0 mph W8.0 kmh W 5.0 mph8.0 kmh 30.17 in1021.7 mb 0.00 in0.0 mm 0.00 in0.0 mm 0.00 in0.0 mm
01:15 PM 72.8°F22.7°C 62.5°F16.9°C 70% 3.0 mph WSW4.8 kmh WSW 9.0 mph14.5 kmh 30.16 in1021.3 mb 0.00 in0.0 mm 0.00 in0.0 mm 0.00 in0.0 mm
01:20 PM 72.9°F22.7°C 62.6°F17.0°C 70% 4.0 mph WSW6.4 kmh WSW 10.0 mph16.1 kmh 30.16 in1021.3 mb 0.00 in0.0 mm 0.00 in0.0 mm 0.00 in0.0 mm
01:34 PM 73.2°F22.9°C 62.8°F17.1°C 70% 3.0 mph W4.8 kmh W 10.0 mph16.1 kmh 30.15 in1021.0 mb 0.00 in0.0 mm 0.00 in0.0 mm 0.00 in0.0 mm
01:40 PM 73.1°F22.8°C 62.7°F17.1°C 70% 5.0 mph SW8.0 kmh SW 11.0 mph17.7 kmh 30.15 in1021.0 mb 0.00 in0.0 mm 0.00 in0.0 mm 0.00 in0.0 mm
01:55 PM 73.1°F22.8°C 63.6°F17.6°C 72% 5.0 mph W8.0 kmh W 10.0 mph16.1 kmh 30.15 in1021.0 mb 0.00 in0.0 mm 0.00 in0.0 mm 0.00 in0.0 mm
02:00 PM 73.3°F22.9°C 63.7°F17.6°C 72% 6.0 mph WSW9.7 kmh WSW 10.0 mph16.1 kmh 30.15 in1021.0 mb 0.00 in0.0 mm 0.00 in0.0 mm 0.00 in0.0 mm
02:15 PM 73.6°F23.1°C 64.0°F17.8°C 72% 7.0 mph WNW11.3 kmh WNW 9.0 mph14.5 kmh 30.14 in1020.7 mb 0.00 in0.0 mm 0.00 in0.0 mm 0.00 in0.0 mm
02:25 PM 74.1°F23.4°C 63.3°F17.4°C 69% 3.0 mph W4.8 kmh W 8.0 mph12.9 kmh 30.14 in1020.7 mb 0.00 in0.0 mm 0.00 in0.0 mm 0.00 in0.0 mm
02:29 PM 74.3°F23.5°C 63.9°F17.7°C 70% 3.0 mph W4.8 kmh W 9.0 mph14.5 kmh 30.14 in1020.7 mb 0.00 in0.0 mm 0.00 in0.0 mm 0.00 in0.0 mm
02:45 PM 74.7°F23.7°C 63.5°F17.5°C 68% 6.0 mph WSW9.7 kmh WSW 11.0 mph17.7 kmh 30.14 in1020.7 mb 0.00 in0.0 mm 0.00 in0.0 mm 0.00 in0.0 mm
02:50 PM 74.6°F23.7°C 64.2°F17.9°C 70% 6.0 mph WSW9.7 kmh WSW 11.0 mph17.7 kmh 30.13 in1020.3 mb 0.00 in0.0 mm 0.00 in0.0 mm 0.00 in0.0 mm
03:05 PM 74.5°F23.6°C 62.8°F17.1°C 67% 6.0 mph WSW9.7 kmh WSW 9.0 mph14.5 kmh 30.13 in1020.3 mb 0.00 in0.0 mm 0.00 in0.0 mm 0.00 in0.0 mm
03:09 PM 74.4°F23.6°C 62.7°F17.1°C 67% 7.0 mph W11.3 kmh W 9.0 mph14.5 kmh 30.13 in1020.3 mb 0.00 in0.0 mm 0.00 in0.0 mm 0.00 in0.0 mm
03:25 PM 74.7°F23.7°C 62.6°F17.0°C 66% 6.0 mph WSW9.7 kmh WSW 9.0 mph14.5 kmh 30.12 in1020.0 mb 0.00 in0.0 mm 0.00 in0.0 mm 0.00 in0.0 mm
03:30 PM 74.6°F23.7°C 62.9°F17.2°C 67% 5.0 mph W8.0 kmh W 9.0 mph14.5 kmh 30.11 in1019.6 mb 0.00 in0.0 mm 0.00 in0.0 mm 0.00 in0.0 mm
03:44 PM 74.3°F23.5°C 62.6°F17.0°C 67% 6.0 mph SW9.7 kmh SW 10.0 mph16.1 kmh 30.11 in1019.6 mb 0.00 in0.0 mm 0.00 in0.0 mm 0.00 in0.0 mm
03:50 PM 74.3°F23.5°C 63.1°F17.3°C 68% 7.0 mph SW11.3 kmh SW 10.0 mph16.1 kmh 30.11 in1019.6 mb 0.00 in0.0 mm 0.00 in0.0 mm 0.00 in0.0 mm
04:05 PM 75.1°F23.9°C 62.5°F16.9°C 65% 3.0 mph WSW4.8 kmh WSW 9.0 mph14.5 kmh 30.10 in1019.3 mb 0.00 in0.0 mm 0.00 in0.0 mm 0.00 in0.0 mm
04:10 PM 75.1°F23.9°C 62.1°F16.7°C 64% 7.0 mph W11.3 kmh W 9.0 mph14.5 kmh 30.10 in1019.3 mb 0.00 in0.0 mm 0.00 in0.0 mm 0.00 in0.0 mm
04:25 PM 75.3°F24.1°C 61.9°F16.6°C 63% 5.0 mph NW8.0 kmh NW 10.0 mph16.1 kmh 30.09 in1019.0 mb 0.00 in0.0 mm 0.00 in0.0 mm 0.00 in0.0 mm
04:30 PM 75.7°F24.3°C 62.2°F16.8°C 63% 4.0 mph WSW6.4 kmh WSW 10.0 mph16.1 kmh 30.09 in1019.0 mb 0.00 in0.0 mm 0.00 in0.0 mm 0.00 in0.0 mm
04:45 PM 76.6°F24.8°C 64.4°F18.0°C 66% 6.0 mph SSW9.7 kmh SSW 10.0 mph16.1 kmh 30.08 in1018.6 mb 0.00 in0.0 mm 0.00 in0.0 mm 0.00 in0.0 mm
04:50 PM 76.6°F24.8°C 64.0°F17.8°C 65% 6.0 mph SW9.7 kmh SW 6.0 mph9.7 kmh 30.08 in1018.6 mb 0.00 in0.0 mm 0.00 in0.0 mm 0.00 in0.0 mm
05:05 PM 77.1°F25.1°C 63.1°F17.3°C 62% 4.0 mph WSW6.4 kmh WSW 11.0 mph17.7 kmh 30.08 in1018.6 mb 0.00 in0.0 mm 0.00 in0.0 mm 0.00 in0.0 mm
05:10 PM 76.8°F24.9°C 63.7°F17.6°C 64% 10.0 mph WSW16.1 kmh WSW 10.0 mph16.1 kmh 30.08 in1018.6 mb 0.00 in0.0 mm 0.00 in0.0 mm 0.00 in0.0 mm
05:24 PM 76.7°F24.8°C 63.6°F17.6°C 64% 4.0 mph SW6.4 kmh SW 8.0 mph12.9 kmh 30.08 in1018.6 mb 0.00 in0.0 mm 0.00 in0.0 mm 0.00 in0.0 mm
05:30 PM 76.9°F24.9°C 64.3°F17.9°C 65% 6.0 mph W9.7 kmh W 9.0 mph14.5 kmh 30.07 in1018.3 mb 0.00 in0.0 mm 0.00 in0.0 mm 0.00 in0.0 mm
05:45 PM 76.9°F24.9°C 63.8°F17.7°C 64% 6.0 mph W9.7 kmh W 9.0 mph14.5 kmh 30.07 in1018.3 mb 0.00 in0.0 mm 0.00 in0.0 mm 0.00 in0.0 mm
05:49 PM 76.4°F24.7°C 63.3°F17.4°C 64% 5.0 mph SSW8.0 kmh SSW 9.0 mph14.5 kmh 30.07 in1018.3 mb 0.00 in0.0 mm 0.00 in0.0 mm 0.00 in0.0 mm
06:05 PM 76.0°F24.4°C 63.4°F17.4°C 65% 3.0 mph SW4.8 kmh SW 9.0 mph14.5 kmh 30.06 in1017.9 mb 0.00 in0.0 mm 0.00 in0.0 mm 0.00 in0.0 mm
06:10 PM 76.1°F24.5°C 63.5°F17.5°C 65% 6.0 mph SW9.7 kmh SW 9.0 mph14.5 kmh 30.06 in1017.9 mb 0.00 in0.0 mm 0.00 in0.0 mm 0.00 in0.0 mm
06:25 PM 75.7°F24.3°C 63.1°F17.3°C 65% 5.0 mph W8.0 kmh W 9.0 mph14.5 kmh 30.05 in1017.6 mb 0.00 in0.0 mm 0.00 in0.0 mm 0.00 in0.0 mm
06:30 PM 75.4°F24.1°C 62.8°F17.1°C 65% 5.0 mph W8.0 kmh W 8.0 mph12.9 kmh 30.05 in1017.6 mb 0.00 in0.0 mm 0.00 in0.0 mm 0.00 in0.0 mm
06:45 PM 74.8°F23.8°C 62.3°F16.8°C 65% 4.0 mph SW6.4 kmh SW 9.0 mph14.5 kmh 30.05 in1017.6 mb 0.00 in0.0 mm 0.00 in0.0 mm 0.00 in0.0 mm
06:50 PM 74.4°F23.6°C 62.7°F17.1°C 67% 6.0 mph SW9.7 kmh SW 9.0 mph14.5 kmh 30.05 in1017.6 mb 0.00 in0.0 mm 0.00 in0.0 mm 0.00 in0.0 mm
07:05 PM 73.4°F23.0°C 62.6°F17.0°C 69% 9.0 mph SSW14.5 kmh SSW 9.0 mph14.5 kmh 30.05 in1017.6 mb 0.00 in0.0 mm 0.00 in0.0 mm 0.00 in0.0 mm
07:10 PM 73.1°F22.8°C 61.9°F16.6°C 68% 3.0 mph WSW4.8 kmh WSW 9.0 mph14.5 kmh 30.05 in1017.6 mb 0.00 in0.0 mm 0.00 in0.0 mm 0.00 in0.0 mm
07:25 PM 72.1°F22.3°C 61.4°F16.3°C 69% 4.0 mph NW6.4 kmh NW 7.0 mph11.3 kmh 30.04 in1017.3 mb 0.00 in0.0 mm 0.00 in0.0 mm 0.00 in0.0 mm
07:30 PM 71.9°F22.2°C 61.2°F16.2°C 69% 2.0 mph SW3.2 kmh SW 2.0 mph3.2 kmh 30.04 in1017.3 mb 0.00 in0.0 mm 0.00 in0.0 mm 0.00 in0.0 mm
07:44 PM 71.5°F21.9°C 61.2°F16.2°C 70% 2.0 mph WSW3.2 kmh WSW 6.0 mph9.7 kmh 30.04 in1017.3 mb 0.00 in0.0 mm 0.00 in0.0 mm 0.00 in0.0 mm
07:49 PM 71.3°F21.8°C 61.0°F16.1°C 70% 2.0 mph SW3.2 kmh SW 6.0 mph9.7 kmh 30.04 in1017.3 mb 0.00 in0.0 mm 0.00 in0.0 mm 0.00 in0.0 mm
08:05 PM 71.2°F21.8°C 61.3°F16.3°C 71% 5.0 mph SW8.0 kmh SW 8.0 mph12.9 kmh 30.04 in1017.3 mb 0.00 in0.0 mm 0.00 in0.0 mm 0.00 in0.0 mm
08:10 PM 71.0°F21.7°C 61.9°F16.6°C 73% 3.0 mph SSW4.8 kmh SSW 8.0 mph12.9 kmh 30.04 in1017.3 mb 0.00 in0.0 mm 0.00 in0.0 mm 0.00 in0.0 mm
08:25 PM 70.0°F21.1°C 61.3°F16.3°C 74% 2.0 mph SSW3.2 kmh SSW 5.0 mph8.0 kmh 30.04 in1017.3 mb 0.00 in0.0 mm 0.00 in0.0 mm 0.00 in0.0 mm
08:30 PM 69.8°F21.0°C 61.2°F16.2°C 74% 3.0 mph SW4.8 kmh SW 5.0 mph8.0 kmh 30.04 in1017.3 mb 0.00 in0.0 mm 0.00 in0.0 mm 0.00 in0.0 mm
08:45 PM 69.2°F20.7°C 61.0°F16.1°C 75% 8.0 mph SSW12.9 kmh SSW 8.0 mph12.9 kmh 30.04 in1017.3 mb 0.00 in0.0 mm 0.00 in0.0 mm 0.00 in0.0 mm
08:50 PM 69.1°F20.6°C 61.2°F16.2°C 76% 2.0 mph S3.2 kmh S 3.0 mph4.8 kmh 30.04 in1017.3 mb 0.00 in0.0 mm 0.00 in0.0 mm 0.00 in0.0 mm
09:05 PM 68.5°F20.3°C 60.6°F15.9°C 76% 3.0 mph S4.8 kmh S 6.0 mph9.7 kmh 30.04 in1017.3 mb 0.00 in0.0 mm 0.00 in0.0 mm 0.00 in0.0 mm
09:10 PM 68.4°F20.2°C 61.3°F16.3°C 78% 4.0 mph SE6.4 kmh SE 6.0 mph9.7 kmh 30.04 in1017.3 mb 0.00 in0.0 mm 0.00 in0.0 mm 0.00 in0.0 mm
09:25 PM 67.3°F19.6°C 60.6°F15.9°C 79% 5.0 mph SE8.0 kmh SE 5.0 mph8.0 kmh 30.04 in1017.3 mb 0.00 in0.0 mm 0.00 in0.0 mm 0.00 in0.0 mm
09:29 PM 66.9°F19.4°C 60.2°F15.7°C 79% 3.0 mph SE4.8 kmh SE 6.0 mph9.7 kmh 30.04 in1017.3 mb 0.00 in0.0 mm 0.00 in0.0 mm 0.00 in0.0 mm
09:45 PM 66.0°F18.9°C 59.7°F15.4°C 80% Calm Calm -- 30.05 in1017.6 mb 0.00 in0.0 mm 0.00 in0.0 mm 0.00 in0.0 mm
09:49 PM 65.8°F18.8°C 59.8°F15.4°C 81% Calm Calm -- 30.05 in1017.6 mb 0.00 in0.0 mm 0.00 in0.0 mm 0.00 in0.0 mm
10:05 PM 65.0°F18.3°C 59.4°F15.2°C 82% Calm Calm -- 30.05 in1017.6 mb 0.00 in0.0 mm 0.00 in0.0 mm 0.00 in0.0 mm
10:09 PM 64.9°F18.3°C 59.3°F15.2°C 82% Calm Calm -- 30.05 in1017.6 mb 0.00 in0.0 mm 0.00 in0.0 mm 0.00 in0.0 mm
10:25 PM 64.3°F17.9°C 59.0°F15.0°C 83% 2.0 mph SE3.2 kmh SE 3.0 mph4.8 kmh 30.05 in1017.6 mb 0.00 in0.0 mm 0.00 in0.0 mm 0.00 in0.0 mm
10:30 PM 64.2°F17.9°C 58.9°F14.9°C 83% 2.0 mph SE3.2 kmh SE 4.0 mph6.4 kmh 30.05 in1017.6 mb 0.00 in0.0 mm 0.00 in0.0 mm 0.00 in0.0 mm
10:45 PM 63.8°F17.7°C 58.9°F14.9°C 84% 3.0 mph SE4.8 kmh SE 4.0 mph6.4 kmh 30.05 in1017.6 mb 0.00 in0.0 mm 0.00 in0.0 mm 0.00 in0.0 mm
10:50 PM 63.6°F17.6°C 58.7°F14.8°C 84% 4.0 mph SE6.4 kmh SE 4.0 mph6.4 kmh 30.05 in1017.6 mb 0.00 in0.0 mm 0.00 in0.0 mm 0.00 in0.0 mm
11:05 PM 63.1°F17.3°C 58.2°F14.6°C 84% 4.0 mph SE6.4 kmh SE 4.0 mph6.4 kmh 30.05 in1017.6 mb 0.00 in0.0 mm 0.00 in0.0 mm 0.00 in0.0 mm
11:10 PM 63.0°F17.2°C 58.4°F14.7°C 85% 2.0 mph SE3.2 kmh SE 3.0 mph4.8 kmh 30.05 in1017.6 mb 0.00 in0.0 mm 0.00 in0.0 mm 0.00 in0.0 mm
11:25 PM 62.6°F17.0°C 58.0°F14.4°C 85% 2.0 mph SE3.2 kmh SE 3.0 mph4.8 kmh 30.05 in1017.6 mb 0.00 in0.0 mm 0.00 in0.0 mm 0.00 in0.0 mm
11:30 PM 62.5°F16.9°C 57.9°F14.4°C 85% 2.0 mph SE3.2 kmh SE 2.0 mph3.2 kmh 30.05 in1017.6 mb 0.00 in0.0 mm 0.00 in0.0 mm 0.00 in0.0 mm
11:45 PM 62.2°F16.8°C 57.6°F14.2°C 85% 1.0 mph SE1.6 kmh SE 4.0 mph6.4 kmh 30.05 in1017.6 mb 0.00 in0.0 mm 0.00 in0.0 mm 0.00 in0.0 mm
11:50 PM 62.1°F16.7°C 57.5°F14.2°C 85% 2.0 mph SE3.2 kmh SE 2.0 mph3.2 kmh 30.05 in1017.6 mb 0.00 in0.0 mm 0.00 in0.0 mm 0.00 in0.0 mm